ePrivacy and GPDR Cookie Consent by Cookie Consent
EmailTwitter


Observations de surface / Québec / CYUL (71627)

Régions: Québec | Canada | États-Unis | Europe | France | UK | Ailleurs
Station
Affichage
Infos & localisation pour CYUL (71627) | Aide pour décoder les METARs

Observations prises le 2021-10-17 à 15H00 UTC à MONTREAL INTL A, QB (CYUL)

Etat du ciel: partiellement nuageux.

Température: 11.0 Celsius

Point de rosée: 6.0 Celsius

Humidité relative: 71%

Vents: Ouest à 13 km/h ou 7 noeuds.

Pression au niveau moyen de la mer: 100.63 kilopascals.

Calage altimétrique: 100.61 kilopascals ou 29.71 pouces de mercure.

Visibilité horizontale: 30.00 milles terrestres ou 48.00 kilomètres.

Hauteur du plafond: 671 mètres ( 2200 pieds ).

Observation METAR:

CYUL 171500Z 27007KT 210V300 30SM BKN022 11/06 A2971 RMK SC6 SLP063=